Time,TemperatureF,DewpointF,PressureIn,WindDirection,WindDirectionDegrees,WindSpeedMPH,WindSpeedGustMPH,Humidity,HourlyPrecipIn,Conditions,Clouds,dailyrainin,SoftwareType,DateUTC
2013-05-16 00:00:00,75.0,64.6,28.57,South,180,3.5,0.0,70,0.00,CLR,SKC,0.00,WeatherDisplay:10.37,2013-05-16 04:00:00,
2013-05-16 00:01:00,75.0,64.6,28.57,South,180,3.5,0.0,70,0.00,CLR,SKC,0.00,WeatherDisplay:10.37,2013-05-16 04:01:00,
2013-05-16 00:02:00,75.0,64.6,28.56,South,180,2.3,0.0,70,0.00,CLR,SKC,0.00,WeatherDisplay:10.37,2013-05-16 04:02:00,
2013-05-16 00:03:00,75.0,64.6,28.57,South,180,2.3,0.0,70,0.00,CLR,SKC,0.00,WeatherDisplay:10.37,2013-05-16 04:03:00,
2013-05-16 00:04:00,75.0,64.6,28.57,South,180,2.3,0.0,70,0.00,CLR,SKC,0.00,WeatherDisplay:10.37,2013-05-16 04:04:00,
2013-05-16 00:08:00,74.7,64.2,28.56,SE,135,2.3,2.3,70,0.00,CLR,SKC,0.00,WeatherDisplay:10.37,2013-05-16 04:08:00,
2013-05-16 00:13:00,74.5,64.5,28.57,South,180,3.5,0.0,71,0.00,CLR,SKC,0.00,WeatherDisplay:10.37,2013-05-16 04:13:00,
2013-05-16 00:18:00,74.5,64.5,28.57,SE,135,1.2,0.0,71,0.00,CLR,SKC,0.00,WeatherDisplay:10.37,2013-05-16 04:18:00,
2013-05-16 00:23:00,74.1,64.1,28.56,SE,135,0.0,0.0,71,0.00,CLR,SKC,0.00,WeatherDisplay:10.37,2013-05-16 04:23:00,
2013-05-16 00:28:00,73.9,63.9,28.57,North,6,1.2,0.0,71,0.00,CLR,SKC,0.00,WeatherDisplay:10.37,2013-05-16 04:28:00,
2013-05-16 00:33:00,73.8,64.2,28.57,South,180,1.2,0.0,72,0.00,CLR,SKC,0.00,WeatherDisplay:10.37,2013-05-16 04:33:00,
2013-05-16 00:38:00,73.8,64.2,28.57,South,180,1.2,0.0,72,0.00,CLR,SKC,0.00,WeatherDisplay:10.37,2013-05-16 04:38:00,
2013-05-16 00:43:00,73.4,63.8,28.57,South,180,1.2,0.0,72,0.00,CLR,SKC,0.00,WeatherDisplay:10.37,2013-05-16 04:43:00,
2013-05-16 00:48:00,73.4,64.2,28.57,South,180,1.2,0.0,73,0.00,CLR,SKC,0.00,WeatherDisplay:10.37,2013-05-16 04:48:00,
2013-05-16 00:53:00,73.2,64.0,28.57,North,0,0.0,0.0,73,0.00,CLR,SKC,0.00,WeatherDisplay:10.37,2013-05-16 04:53:00,
2013-05-16 00:58:00,73.0,63.9,28.57,SE,135,0.0,0.0,73,0.00,CLR,SKC,0.00,WeatherDisplay:10.37,2013-05-16 04:58:00,
2013-05-16 01:03:00,73.0,63.9,28.57,South,180,0.0,0.0,73,0.00,CLR,SKC,0.00,WeatherDisplay:10.37,2013-05-16 05:03:00,
2013-05-16 01:08:00,72.7,63.5,28.57,SE,135,0.0,0.0,73,0.00,CLR,SKC,0.00,WeatherDisplay:10.37,2013-05-16 05:08:00,
2013-05-16 01:13:00,72.5,63.7,28.56,South,180,1.2,0.0,74,0.00,CLR,SKC,0.00,WeatherDisplay:10.37,2013-05-16 05:13:00,
2013-05-16 01:18:00,72.3,63.6,28.56,East,90,0.0,0.0,74,0.00,CLR,SKC,0.00,WeatherDisplay:10.37,2013-05-16 05:18:00,
2013-05-16 01:23:00,72.0,63.2,28.57,East,90,0.0,0.0,74,0.00,CLR,SKC,0.00,WeatherDisplay:10.37,2013-05-16 05:23:00,
2013-05-16 01:28:00,71.6,62.9,28.56,South,180,0.0,0.0,74,0.00,CLR,SKC,0.00,WeatherDisplay:10.37,2013-05-16 05:28:00,
2013-05-16 01:33:00,71.4,63.1,28.57,South,180,0.0,0.0,75,0.00,CLR,SKC,0.00,WeatherDisplay:10.37,2013-05-16 05:33:00,
2013-05-16 01:38:00,71.1,63.1,28.57,SE,135,0.0,0.0,76,0.00,CLR,SKC,0.00,WeatherDisplay:10.37,2013-05-16 05:38:00,
2013-05-16 01:43:00,70.9,62.9,28.57,SE,135,0.0,0.0,76,0.00,CLR,SKC,0.00,WeatherDisplay:10.37,2013-05-16 05:43:00,
2013-05-16 01:48:00,70.9,63.3,28.57,South,180,0.0,0.0,77,0.00,CLR,SKC,0.00,WeatherDisplay:10.37,2013-05-16 05:48:00,
2013-05-16 01:53:00,71.1,63.5,28.57,North,0,0.0,0.0,77,0.00,CLR,SKC,0.00,WeatherDisplay:10.37,2013-05-16 05:53:00,
2013-05-16 01:58:00,71.1,63.5,28.57,South,180,1.2,0.0,77,0.00,CLR,SKC,0.00,WeatherDisplay:10.37,2013-05-16 05:58:00,
2013-05-16 02:03:00,71.2,63.7,28.57,South,180,0.0,0.0,77,0.00,CLR,SKC,0.00,WeatherDisplay:10.37,2013-05-16 06:03:00,
2013-05-16 02:08:00,71.2,63.3,28.57,South,180,0.0,0.0,76,0.00,CLR,SKC,0.00,WeatherDisplay:10.37,2013-05-16 06:08:00,
2013-05-16 02:13:00,71.2,63.3,28.57,South,180,4.6,0.0,76,0.00,CLR,SKC,0.00,WeatherDisplay:10.37,2013-05-16 06:13:00,
2013-05-16 02:18:00,71.4,63.5,28.57,South,180,1.2,0.0,76,0.00,CLR,SKC,0.00,WeatherDisplay:10.37,2013-05-16 06:18:00,
2013-05-16 02:23:00,71.4,63.5,28.57,South,180,0.0,0.0,76,0.00,CLR,SKC,0.00,WeatherDisplay:10.37,2013-05-16 06:23:00,
2013-05-16 02:28:00,71.2,63.3,28.57,SE,135,0.0,0.0,76,0.00,CLR,SKC,0.00,WeatherDisplay:10.37,2013-05-16 06:28:00,
2013-05-16 02:33:00,71.1,63.1,28.57,SE,135,0.0,0.0,76,0.00,CLR,SKC,0.00,WeatherDisplay:10.37,2013-05-16 06:33:00,
2013-05-16 02:38:00,71.1,63.1,28.56,SE,135,0.0,0.0,76,0.00,CLR,SKC,0.00,WeatherDisplay:10.37,2013-05-16 06:38:00,
2013-05-16 02:43:00,70.7,63.5,28.57,North,6,2.3,2.3,78,0.00,CLR,SKC,0.00,WeatherDisplay:10.37,2013-05-16 06:43:00,
2013-05-16 02:48:00,70.5,63.3,28.56,North,0,0.0,0.0,78,0.00,CLR,SKC,0.00,WeatherDisplay:10.37,2013-05-16 06:48:00,
2013-05-16 02:53:00,70.2,63.3,28.56,SE,135,0.0,0.0,79,0.00,CLR,SKC,0.00,WeatherDisplay:10.37,2013-05-16 06:53:00,
2013-05-16 02:58:00,69.6,63.5,28.57,East,90,0.0,0.0,81,0.00,CLR,SKC,0.00,WeatherDisplay:10.37,2013-05-16 06:58:00,
2013-05-16 03:03:00,69.3,63.5,28.56,East,90,1.2,0.0,82,0.00,CLR,SKC,0.00,WeatherDisplay:10.37,2013-05-16 07:03:00,
2013-05-16 03:08:00,68.5,63.8,28.56,SE,135,1.2,0.0,85,0.00,CLR,SKC,0.00,WeatherDisplay:10.37,2013-05-16 07:08:00,
2013-05-16 03:13:00,68.4,63.7,28.57,SE,135,1.2,0.0,85,0.00,CLR,SKC,0.00,WeatherDisplay:10.37,2013-05-16 07:13:00,
2013-05-16 03:18:00,68.4,63.7,28.57,SE,135,2.3,2.3,85,0.00,CLR,SKC,0.00,WeatherDisplay:10.37,2013-05-16 07:18:00,
2013-05-16 03:23:00,68.7,63.3,28.57,South,180,3.5,0.0,83,0.00,CLR,SKC,0.00,WeatherDisplay:10.37,2013-05-16 07:23:00,
2013-05-16 03:28:00,68.7,63.3,28.58,North,6,4.6,4.6,83,0.00,CLR,SKC,0.00,WeatherDisplay:10.37,2013-05-16 07:28:00,
2013-05-16 03:33:00,68.4,63.0,28.57,South,180,5.8,5.8,83,0.00,CLR,SKC,0.00,WeatherDisplay:10.37,2013-05-16 07:33:00,
2013-05-16 03:38:00,67.8,62.8,28.57,South,180,3.5,3.5,84,0.00,CLR,SKC,0.00,WeatherDisplay:10.37,2013-05-16 07:38:00,
2013-05-16 03:43:00,67.5,62.8,28.57,South,180,3.5,0.0,85,0.01,RA,SKC,0.01,WeatherDisplay:10.37,2013-05-16 07:43:00,
2013-05-16 03:48:00,66.9,62.6,28.58,South,180,3.5,0.0,86,0.01,RA,SKC,0.01,WeatherDisplay:10.37,2013-05-16 07:48:00,
2013-05-16 03:53:00,66.4,62.7,28.58,South,180,6.9,0.0,88,0.02,RA,SKC,0.02,WeatherDisplay:10.37,2013-05-16 07:53:00,
2013-05-16 03:58:00,65.7,63.0,28.57,South,180,5.8,0.0,91,0.05,RA,SKC,0.05,WeatherDisplay:10.37,2013-05-16 07:58:00,
2013-05-16 04:03:00,65.3,62.6,28.58,South,180,1.2,0.0,91,0.05,RA,SKC,0.05,WeatherDisplay:10.37,2013-05-16 08:03:00,
2013-05-16 04:08:00,65.3,62.6,28.59,South,180,1.2,0.0,91,0.05,,SKC,0.05,WeatherDisplay:10.37,2013-05-16 08:08:00,
2013-05-16 04:13:00,64.0,62.6,28.59,SE,135,1.2,0.0,95,0.07,RA,SKC,0.07,WeatherDisplay:10.37,2013-05-16 08:13:00,
2013-05-16 04:18:00,63.7,62.2,28.59,East,90,1.2,0.0,95,0.08,RA,SKC,0.08,WeatherDisplay:10.37,2013-05-16 08:18:00,
2013-05-16 04:23:00,63.5,62.3,28.59,South,180,0.0,0.0,96,0.08,RA,SKC,0.08,WeatherDisplay:10.37,2013-05-16 08:23:00,
2013-05-16 04:28:00,63.3,63.0,28.59,SE,135,2.3,0.0,99,0.08,CLR,SKC,0.08,WeatherDisplay:10.37,2013-05-16 08:28:00,
2013-05-16 04:33:00,63.1,63.1,28.60,East,90,2.3,0.0,100,0.08,CLR,SKC,0.08,WeatherDisplay:10.37,2013-05-16 08:33:00,
2013-05-16 04:38:00,63.1,63.1,28.59,SE,135,1.2,0.0,100,0.09,RA,SKC,0.09,WeatherDisplay:10.37,2013-05-16 08:38:00,
2013-05-16 04:43:00,62.8,62.8,28.59,South,180,2.3,0.0,100,0.08,RA,SKC,0.09,WeatherDisplay:10.37,2013-05-16 08:43:00,
2013-05-16 04:48:00,62.8,62.8,28.59,South,180,3.5,3.5,100,0.09,RA,SKC,0.11,WeatherDisplay:10.37,2013-05-16 08:48:00,
2013-05-16 04:53:00,62.8,62.8,28.60,East,90,1.2,0.0,100,0.08,RA,SKC,0.11,WeatherDisplay:10.37,2013-05-16 08:53:00,
2013-05-16 04:58:00,62.6,62.6,28.60,South,180,3.5,3.5,100,0.07,RA,SKC,0.12,WeatherDisplay:10.37,2013-05-16 08:58:00,
2013-05-16 05:03:00,62.4,62.4,28.60,South,180,3.5,0.0,100,0.08,RA,SKC,0.13,WeatherDisplay:10.37,2013-05-16 09:03:00,
2013-05-16 05:08:00,62.2,62.2,28.61,NE,45,2.3,0.0,100,0.09,RA,SKC,0.14,WeatherDisplay:10.37,2013-05-16 09:08:00,
2013-05-16 05:13:00,62.2,62.2,28.60,South,180,1.2,0.0,100,0.07,RA,SKC,0.14,WeatherDisplay:10.37,2013-05-16 09:13:00,
2013-05-16 05:18:00,62.2,62.2,28.61,NE,45,2.3,0.0,100,0.07,RA,SKC,0.15,WeatherDisplay:10.37,2013-05-16 09:18:00,
2013-05-16 05:23:00,62.1,62.1,28.61,South,180,1.2,0.0,100,0.07,RA,SKC,0.15,WeatherDisplay:10.37,2013-05-16 09:23:00,
2013-05-16 05:28:00,62.1,62.1,28.60,South,180,3.5,0.0,100,0.08,RA,SKC,0.17,WeatherDisplay:10.37,2013-05-16 09:28:00,
2013-05-16 05:33:00,61.9,61.9,28.60,SE,135,1.2,0.0,100,0.08,RA,SKC,0.17,WeatherDisplay:10.37,2013-05-16 09:33:00,
2013-05-16 05:38:00,61.9,61.9,28.60,East,90,3.5,0.0,100,0.08,RA,SKC,0.18,WeatherDisplay:10.37,2013-05-16 09:38:00,
2013-05-16 05:43:00,61.9,61.9,28.60,SE,135,1.2,0.0,100,0.08,RA,SKC,0.18,WeatherDisplay:10.37,2013-05-16 09:43:00,
2013-05-16 05:48:00,61.7,61.7,28.60,South,180,1.2,0.0,100,0.07,CLR,SKC,0.18,WeatherDisplay:10.37,2013-05-16 09:48:00,
2013-05-16 05:53:00,61.7,61.7,28.60,SE,135,1.2,0.0,100,0.07,CLR,SKC,0.18,WeatherDisplay:10.37,2013-05-16 09:53:00,
2013-05-16 05:58:00,61.7,61.7,28.59,SE,135,2.3,0.0,100,0.06,CLR,SKC,0.18,WeatherDisplay:10.37,2013-05-16 09:58:00,
2013-05-16 06:03:00,61.5,61.5,28.60,South,180,1.2,0.0,100,0.05,CLR,SKC,0.18,WeatherDisplay:10.37,2013-05-16 10:03:00,
2013-05-16 06:08:00,61.5,61.5,28.61,SE,135,1.2,0.0,100,0.04,CLR,SKC,0.18,WeatherDisplay:10.37,2013-05-16 10:08:00,
2013-05-16 06:13:00,61.5,61.5,28.60,South,180,2.3,0.0,100,0.04,CLR,SKC,0.18,WeatherDisplay:10.37,2013-05-16 10:13:00,
2013-05-16 06:18:00,61.3,61.3,28.61,East,90,1.2,0.0,100,0.02,CLR,SKC,0.18,WeatherDisplay:10.37,2013-05-16 10:18:00,
2013-05-16 06:23:00,61.3,61.3,28.61,SE,135,3.5,3.5,100,0.02,CLR,SKC,0.18,WeatherDisplay:10.37,2013-05-16 10:23:00,
2013-05-16 06:28:00,61.3,61.3,28.61,West,270,0.0,0.0,100,0.01,CLR,SKC,0.18,WeatherDisplay:10.37,2013-05-16 10:28:00,
2013-05-16 06:33:00,61.3,61.3,28.62,South,180,0.0,0.0,100,0.01,CLR,SKC,0.18,WeatherDisplay:10.37,2013-05-16 10:33:00,
2013-05-16 06:38:00,61.3,61.3,28.62,South,180,2.3,0.0,100,0.00,CLR,SKC,0.18,WeatherDisplay:10.37,2013-05-16 10:38:00,
2013-05-16 06:43:00,61.3,61.3,28.62,East,90,1.2,0.0,100,0.00,CLR,SKC,0.18,WeatherDisplay:10.37,2013-05-16 10:43:00,
2013-05-16 06:48:00,61.3,61.3,28.62,NE,45,2.3,2.3,100,0.00,CLR,SKC,0.18,WeatherDisplay:10.37,2013-05-16 10:48:00,
2013-05-16 06:53:00,61.3,61.3,28.63,SE,135,3.5,3.5,100,0.00,CLR,SKC,0.18,WeatherDisplay:10.37,2013-05-16 10:53:00,
2013-05-16 06:58:00,61.3,61.3,28.63,SE,135,1.2,0.0,100,0.00,CLR,SKC,0.18,WeatherDisplay:10.37,2013-05-16 10:58:00,
2013-05-16 07:03:00,61.5,61.5,28.63,SE,135,3.5,0.0,100,0.00,CLR,SKC,0.18,WeatherDisplay:10.37,2013-05-16 11:03:00,
2013-05-16 07:08:00,61.5,61.5,28.63,SE,135,5.8,5.8,100,0.00,CLR,SKC,0.18,WeatherDisplay:10.37,2013-05-16 11:08:00,
2013-05-16 07:13:00,61.7,61.7,28.63,East,90,3.5,3.5,100,0.00,CLR,SKC,0.18,WeatherDisplay:10.37,2013-05-16 11:13:00,
2013-05-16 07:18:00,61.7,61.7,28.63,West,270,3.5,3.5,100,0.00,CLR,SKC,0.18,WeatherDisplay:10.37,2013-05-16 11:18:00,
2013-05-16 07:23:00,61.9,61.9,28.63,NE,45,2.3,0.0,100,0.00,CLR,SKC,0.18,WeatherDisplay:10.37,2013-05-16 11:23:00,
2013-05-16 07:28:00,61.9,61.9,28.63,West,270,2.3,0.0,100,0.00,CLR,SKC,0.18,WeatherDisplay:10.37,2013-05-16 11:28:00,
2013-05-16 07:33:00,62.1,62.1,28.63,SE,135,3.8,3.8,100,0.00,CLR,SKC,0.18,WeatherDisplay:10.37,2013-05-16 11:33:00,
2013-05-16 07:38:00,62.1,62.1,28.63,South,180,3.5,0.0,100,0.00,CLR,SKC,0.18,WeatherDisplay:10.37,2013-05-16 11:38:00,
2013-05-16 07:43:00,62.2,62.2,28.63,East,90,3.5,0.0,100,0.00,CLR,SKC,0.18,WeatherDisplay:10.37,2013-05-16 11:43:00,
2013-05-16 07:48:00,62.4,62.4,28.64,West,270,3.5,3.5,100,0.00,CLR,SKC,0.18,WeatherDisplay:10.37,2013-05-16 11:48:00,
2013-05-16 07:53:00,63.0,63.0,28.64,SE,135,5.8,0.0,100,0.00,CLR,SKC,0.18,WeatherDisplay:10.37,2013-05-16 11:53:00,
2013-05-16 07:58:00,63.5,63.5,28.64,North,6,4.6,0.0,100,0.00,CLR,SKC,0.18,WeatherDisplay:10.37,2013-05-16 11:58:00,
2013-05-16 08:03:00,63.7,63.7,28.64,SE,135,3.5,0.0,100,0.00,CLR,SKC,0.18,WeatherDisplay:10.37,2013-05-16 12:03:00,
2013-05-16 08:08:00,63.7,63.7,28.64,East,90,1.2,0.0,100,0.00,CLR,SKC,0.18,WeatherDisplay:10.37,2013-05-16 12:08:00,
2013-05-16 08:13:00,63.7,63.7,28.64,NW,315,0.0,0.0,100,0.00,CLR,SKC,0.18,WeatherDisplay:10.37,2013-05-16 12:13:00,
2013-05-16 08:18:00,63.9,63.9,28.64,SE,135,2.3,0.0,100,0.00,CLR,SKC,0.18,WeatherDisplay:10.37,2013-05-16 12:18:00,
2013-05-16 08:23:00,64.0,64.0,28.64,South,180,1.2,0.0,100,0.00,CLR,SKC,0.18,WeatherDisplay:10.37,2013-05-16 12:23:00,
2013-05-16 08:28:00,64.4,64.4,28.64,SE,135,1.2,0.0,100,0.00,CLR,SKC,0.18,WeatherDisplay:10.37,2013-05-16 12:28:00,
2013-05-16 08:33:00,64.8,64.8,28.64,South,180,3.5,0.0,100,0.00,CLR,SKC,0.18,WeatherDisplay:10.37,2013-05-16 12:33:00,
2013-05-16 08:38:00,65.1,65.1,28.65,South,180,1.2,0.0,100,0.00,CLR,SKC,0.18,WeatherDisplay:10.37,2013-05-16 12:38:00,
2013-05-16 08:43:00,65.5,65.5,28.64,SE,135,1.2,0.0,100,0.00,CLR,SKC,0.18,WeatherDisplay:10.37,2013-05-16 12:43:00,
2013-05-16 08:48:00,65.8,65.8,28.64,East,90,6.9,6.9,100,0.01,RA,SKC,0.19,WeatherDisplay:10.37,2013-05-16 12:48:00,
2013-05-16 08:53:00,66.2,66.2,28.65,SE,135,3.5,3.5,100,0.01,RA,SKC,0.19,WeatherDisplay:10.37,2013-05-16 12:53:00,
2013-05-16 08:58:00,66.2,65.9,28.65,South,180,3.5,0.0,99,0.01,,SKC,0.19,WeatherDisplay:10.37,2013-05-16 12:58:00,
2013-05-16 09:03:00,66.7,63.4,28.65,South,180,1.2,0.0,89,0.01,CLR,SKC,0.19,WeatherDisplay:10.37,2013-05-16 13:03:00,
2013-05-16 09:08:00,67.6,59.4,28.65,East,90,3.5,0.0,75,0.01,CLR,SKC,0.19,WeatherDisplay:10.37,2013-05-16 13:08:00,
2013-05-16 09:13:00,67.1,52.7,28.65,SE,135,5.8,5.8,60,0.01,CLR,SKC,0.19,WeatherDisplay:10.37,2013-05-16 13:13:00,
2013-05-16 09:18:00,66.7,51.0,28.66,North,0,2.3,0.0,57,0.01,CLR,SKC,0.19,WeatherDisplay:10.37,2013-05-16 13:18:00,
2013-05-16 09:23:00,67.1,51.4,28.65,East,90,4.6,4.6,57,0.01,CLR,SKC,0.19,WeatherDisplay:10.37,2013-05-16 13:23:00,
2013-05-16 09:28:00,66.9,50.2,28.66,NE,45,1.2,0.0,55,0.01,CLR,SKC,0.19,WeatherDisplay:10.37,2013-05-16 13:28:00,
2013-05-16 09:33:00,67.3,50.6,28.66,South,180,3.5,3.5,55,0.01,CLR,SKC,0.19,WeatherDisplay:10.37,2013-05-16 13:33:00,
2013-05-16 09:38:00,67.1,47.8,28.66,West,270,5.8,5.8,50,0.01,CLR,SKC,0.19,WeatherDisplay:10.37,2013-05-16 13:38:00,
2013-05-16 09:43:00,67.8,48.0,28.66,SE,135,5.8,0.0,49,0.01,CLR,SKC,0.19,WeatherDisplay:10.37,2013-05-16 13:43:00,
2013-05-16 09:48:00,68.2,44.2,28.66,SE,135,5.8,5.8,42,0.00,CLR,SKC,0.19,WeatherDisplay:10.37,2013-05-16 13:48:00,
2013-05-16 09:53:00,69.1,42.4,28.66,SE,135,5.8,5.8,38,0.00,CLR,SKC,0.19,WeatherDisplay:10.37,2013-05-16 13:53:00,
2013-05-16 09:58:00,69.4,39.1,28.66,East,90,6.9,6.9,33,0.00,CLR,SKC,0.19,WeatherDisplay:10.37,2013-05-16 13:58:00,
2013-05-16 10:03:00,69.6,38.4,28.66,SSE,158,3.5,3.5,32,0.00,CLR,SKC,0.19,WeatherDisplay:10.37,2013-05-16 14:03:00,
2013-05-16 10:08:00,69.6,37.6,28.66,SE,135,3.8,3.8,31,0.00,CLR,SKC,0.19,WeatherDisplay:10.37,2013-05-16 14:08:00,
2013-05-16 10:13:00,69.4,37.5,28.66,West,270,4.6,4.6,31,0.00,CLR,SKC,0.19,WeatherDisplay:10.37,2013-05-16 14:13:00,
2013-05-16 10:18:00,69.3,38.1,28.65,South,180,5.8,5.8,32,0.00,CLR,SKC,0.19,WeatherDisplay:10.37,2013-05-16 14:18:00,
2013-05-16 10:23:00,70.0,35.4,28.65,NNE,12,4.6,0.0,28,0.00,CLR,SKC,0.19,WeatherDisplay:10.37,2013-05-16 14:23:00,
2013-05-16 10:28:00,71.2,31.5,28.65,South,180,4.6,0.0,23,0.00,CLR,SKC,0.19,WeatherDisplay:10.37,2013-05-16 14:28:00,
2013-05-16 10:33:00,71.4,31.7,28.65,South,180,3.5,0.0,23,0.00,CLR,SKC,0.19,WeatherDisplay:10.37,2013-05-16 14:33:00,
2013-05-16 10:38:00,71.4,31.7,28.66,South,180,2.3,2.3,23,0.00,CLR,SKC,0.19,WeatherDisplay:10.37,2013-05-16 14:38:00,
2013-05-16 10:43:00,71.8,33.0,28.66,South,180,1.2,0.0,24,0.00,CLR,SKC,0.19,WeatherDisplay:10.37,2013-05-16 14:43:00,
2013-05-16 10:48:00,72.1,32.3,28.66,NE,45,6.9,6.9,23,0.00,CLR,SKC,0.19,WeatherDisplay:10.37,2013-05-16 14:48:00,
2013-05-16 10:53:00,73.2,33.2,28.66,West,270,3.5,3.5,23,0.00,CLR,SKC,0.19,WeatherDisplay:10.37,2013-05-16 14:53:00,
2013-05-16 10:58:00,74.3,29.3,28.66,WNW,292,2.3,2.3,19,0.00,CLR,SKC,0.19,WeatherDisplay:10.37,2013-05-16 14:58:00,
2013-05-16 11:03:00,74.8,31.1,28.67,South,180,5.8,5.8,20,0.00,CLR,SKC,0.19,WeatherDisplay:10.37,2013-05-16 15:03:00,
2013-05-16 11:08:00,73.9,33.8,28.67,South,180,8.1,8.1,23,0.00,CLR,SKC,0.19,WeatherDisplay:10.37,2013-05-16 15:08:00,
2013-05-16 11:13:00,73.6,36.6,28.67,South,180,8.1,8.1,26,0.00,CLR,SKC,0.19,WeatherDisplay:10.37,2013-05-16 15:13:00,
2013-05-16 11:18:00,73.4,41.7,28.67,South,180,10.4,10.4,32,0.00,CLR,SKC,0.19,WeatherDisplay:10.37,2013-05-16 15:18:00,
2013-05-16 11:23:00,74.5,40.1,28.67,North,8,5.8,5.8,29,0.00,CLR,SKC,0.19,WeatherDisplay:10.37,2013-05-16 15:23:00,
2013-05-16 11:28:00,74.8,40.4,28.67,South,180,4.6,4.6,29,0.00,CLR,SKC,0.19,WeatherDisplay:10.37,2013-05-16 15:28:00,
2013-05-16 11:33:00,75.6,41.1,28.67,SE,135,8.1,8.1,29,0.00,CLR,SKC,0.19,WeatherDisplay:10.37,2013-05-16 15:33:00,
2013-05-16 11:38:00,76.3,42.6,28.67,South,180,3.5,3.5,30,0.00,CLR,SKC,0.19,WeatherDisplay:10.37,2013-05-16 15:38:00,
2013-05-16 11:43:00,76.5,43.6,28.67,South,180,2.3,0.0,31,0.00,CLR,SKC,0.19,WeatherDisplay:10.37,2013-05-16 15:43:00,
2013-05-16 11:48:00,77.5,46.2,28.67,West,270,3.5,3.5,33,0.00,CLR,SKC,0.19,WeatherDisplay:10.37,2013-05-16 15:48:00,
2013-05-16 11:53:00,76.6,44.6,28.67,North,11,8.1,8.1,32,0.00,CLR,SKC,0.19,WeatherDisplay:10.37,2013-05-16 15:53:00,
2013-05-16 11:58:00,75.6,46.0,28.68,East,90,15.0,15.0,35,0.00,CLR,SKC,0.19,WeatherDisplay:10.37,2013-05-16 15:58:00,
2013-05-16 12:03:00,75.4,45.8,28.67,North,8,5.8,5.8,35,0.00,CLR,SKC,0.19,WeatherDisplay:10.37,2013-05-16 16:03:00,
2013-05-16 12:08:00,76.3,49.5,28.67,South,180,3.5,3.5,39,0.00,CLR,SKC,0.19,WeatherDisplay:10.37,2013-05-16 16:08:00,
2013-05-16 12:13:00,77.2,51.7,28.67,South,180,6.9,6.9,41,0.00,CLR,SKC,0.19,WeatherDisplay:10.37,2013-05-16 16:13:00,
2013-05-16 12:18:00,78.1,48.9,28.67,SE,135,3.8,3.8,36,0.00,CLR,SKC,0.19,WeatherDisplay:10.37,2013-05-16 16:18:00,
2013-05-16 12:23:00,78.1,48.9,28.67,South,180,8.1,8.1,36,0.00,CLR,SKC,0.19,WeatherDisplay:10.37,2013-05-16 16:23:00,
2013-05-16 12:28:00,78.3,51.3,28.67,North,8,9.2,9.2,39,0.00,CLR,SKC,0.19,WeatherDisplay:10.37,2013-05-16 16:28:00,
2013-05-16 12:33:00,77.7,52.1,28.67,SE,135,8.1,8.1,41,0.00,CLR,SKC,0.19,WeatherDisplay:10.37,2013-05-16 16:33:00,
2013-05-16 12:38:00,78.1,52.5,28.67,SSE,158,6.9,6.9,41,0.00,CLR,SKC,0.19,WeatherDisplay:10.37,2013-05-16 16:38:00,
2013-05-16 12:43:00,78.8,53.1,28.67,NNE,12,4.6,4.6,41,0.00,CLR,SKC,0.19,WeatherDisplay:10.37,2013-05-16 16:43:00,
2013-05-16 12:48:00,79.0,51.9,28.67,SE,135,10.4,10.4,39,0.00,CLR,SKC,0.19,WeatherDisplay:10.37,2013-05-16 16:48:00,
2013-05-16 12:53:00,79.3,52.2,28.67,South,180,8.1,8.1,39,0.00,CLR,SKC,0.19,WeatherDisplay:10.37,2013-05-16 16:53:00,
2013-05-16 12:58:00,80.1,52.9,28.67,North,8,3.5,3.5,39,0.00,CLR,SKC,0.19,WeatherDisplay:10.37,2013-05-16 16:58:00,
2013-05-16 13:03:00,79.5,53.8,28.67,West,270,15.0,15.0,41,0.00,CLR,SKC,0.19,WeatherDisplay:10.37,2013-05-16 17:03:00,
2013-05-16 13:08:00,79.0,55.2,28.67,South,180,5.8,5.8,44,0.00,CLR,SKC,0.19,WeatherDisplay:10.37,2013-05-16 17:08:00,
2013-05-16 13:13:00,80.1,56.2,28.67,NE,45,3.5,3.5,44,0.00,CLR,SKC,0.19,WeatherDisplay:10.37,2013-05-16 17:13:00,
2013-05-16 13:18:00,81.1,54.5,28.67,South,180,3.8,3.8,40,0.00,CLR,SKC,0.19,WeatherDisplay:10.37,2013-05-16 17:18:00,
2013-05-16 13:23:00,80.2,54.4,28.67,South,180,5.8,5.8,41,0.00,CLR,SKC,0.19,WeatherDisplay:10.37,2013-05-16 17:23:00,
2013-05-16 13:28:00,79.3,54.3,28.67,South,180,3.5,3.5,42,0.00,CLR,SKC,0.19,WeatherDisplay:10.37,2013-05-16 17:28:00,
2013-05-16 13:33:00,79.0,52.6,28.67,SE,135,8.1,8.1,40,0.00,CLR,SKC,0.19,WeatherDisplay:10.37,2013-05-16 17:33:00,
2013-05-16 13:38:00,79.3,55.5,28.67,South,180,6.9,0.0,44,0.00,CLR,SKC,0.19,WeatherDisplay:10.37,2013-05-16 17:38:00,
2013-05-16 13:43:00,79.9,56.6,28.67,South,180,5.8,5.8,45,0.00,CLR,SKC,0.19,WeatherDisplay:10.37,2013-05-16 17:43:00,
2013-05-16 13:48:00,79.9,55.4,28.67,South,180,3.5,3.5,43,0.00,CLR,SKC,0.19,WeatherDisplay:10.37,2013-05-16 17:48:00,
2013-05-16 13:53:00,78.8,55.7,28.67,North,0,11.5,11.5,45,0.00,CLR,SKC,0.19,WeatherDisplay:10.37,2013-05-16 17:53:00,
2013-05-16 13:58:00,78.6,57.9,28.67,South,180,3.5,0.0,49,0.00,CLR,SKC,0.19,WeatherDisplay:10.37,2013-05-16 17:58:00,
2013-05-16 14:03:00,78.1,56.8,28.67,SE,135,5.8,0.0,48,0.00,CLR,SKC,0.19,WeatherDisplay:10.37,2013-05-16 18:03:00,
2013-05-16 14:08:00,77.7,57.0,28.67,South,180,4.6,4.6,49,0.00,CLR,SKC,0.19,WeatherDisplay:10.37,2013-05-16 18:08:00,
2013-05-16 14:13:00,77.7,57.0,28.67,South,180,5.8,0.0,49,0.00,CLR,SKC,0.19,WeatherDisplay:10.37,2013-05-16 18:13:00,
2013-05-16 14:18:00,77.7,58.1,28.67,SE,135,3.5,0.0,51,0.00,CLR,SKC,0.19,WeatherDisplay:10.37,2013-05-16 18:18:00,
2013-05-16 14:23:00,78.1,58.5,28.67,North,8,4.6,4.6,51,0.00,CLR,SKC,0.19,WeatherDisplay:10.37,2013-05-16 18:23:00,
2013-05-16 14:28:00,77.7,57.6,28.67,South,180,8.1,8.1,50,0.00,CLR,SKC,0.19,WeatherDisplay:10.37,2013-05-16 18:28:00,
2013-05-16 14:33:00,77.5,57.4,28.67,North,8,4.6,4.6,50,0.00,CLR,SKC,0.19,WeatherDisplay:10.37,2013-05-16 18:33:00,
2013-05-16 14:38:00,77.5,56.3,28.67,South,180,6.9,6.9,48,0.00,CLR,SKC,0.19,WeatherDisplay:10.37,2013-05-16 18:38:00,
2013-05-16 14:43:00,77.5,56.9,28.67,South,180,4.6,4.6,49,0.00,CLR,SKC,0.19,WeatherDisplay:10.37,2013-05-16 18:43:00,
2013-05-16 14:48:00,77.7,55.3,28.67,West,270,6.9,6.9,46,0.00,CLR,SKC,0.19,WeatherDisplay:10.37,2013-05-16 18:48:00,
2013-05-16 14:53:00,77.7,57.0,28.67,SE,135,3.5,0.0,49,0.00,CLR,SKC,0.19,WeatherDisplay:10.37,2013-05-16 18:53:00,
2013-05-16 14:58:00,78.4,58.8,28.67,South,180,3.5,0.0,51,0.00,CLR,SKC,0.19,WeatherDisplay:10.37,2013-05-16 18:58:00,
2013-05-16 15:03:00,78.6,57.3,28.67,South,180,5.8,5.8,48,0.00,CLR,SKC,0.19,WeatherDisplay:10.37,2013-05-16 19:03:00,
2013-05-16 15:08:00,78.1,57.9,28.67,South,180,3.5,3.5,50,0.00,CLR,SKC,0.19,WeatherDisplay:10.37,2013-05-16 19:08:00,
2013-05-16 15:13:00,78.3,57.0,28.67,South,180,4.6,4.6,48,0.00,CLR,SKC,0.19,WeatherDisplay:10.37,2013-05-16 19:13:00,
2013-05-16 15:18:00,79.0,58.8,28.66,South,180,5.8,5.8,50,0.00,CLR,SKC,0.19,WeatherDisplay:10.37,2013-05-16 19:18:00,
2013-05-16 15:23:00,79.9,57.3,28.67,South,180,3.5,3.5,46,0.00,CLR,SKC,0.19,WeatherDisplay:10.37,2013-05-16 19:23:00,
2013-05-16 15:28:00,81.0,57.6,28.67,North,8,4.6,4.6,45,0.00,CLR,SKC,0.19,WeatherDisplay:10.37,2013-05-16 19:28:00,
2013-05-16 15:33:00,80.6,56.0,28.66,South,180,8.1,8.1,43,0.00,CLR,SKC,0.19,WeatherDisplay:10.37,2013-05-16 19:33:00,
2013-05-16 15:38:00,80.2,57.6,28.66,South,180,8.1,8.1,46,0.00,CLR,SKC,0.19,WeatherDisplay:10.37,2013-05-16 19:38:00,
2013-05-16 15:43:00,79.0,57.0,28.66,South,180,10.4,0.0,47,0.00,CLR,SKC,0.19,WeatherDisplay:10.37,2013-05-16 19:43:00,
2013-05-16 15:48:00,78.8,56.3,28.66,SE,135,4.6,0.0,46,0.00,CLR,SKC,0.19,WeatherDisplay:10.37,2013-05-16 19:48:00,
2013-05-16 15:53:00,78.6,56.7,28.66,NW,315,2.3,0.0,47,0.00,CLR,SKC,0.19,WeatherDisplay:10.37,2013-05-16 19:53:00,
2013-05-16 15:58:00,78.4,55.9,28.66,South,180,8.1,8.1,46,0.00,CLR,SKC,0.19,WeatherDisplay:10.37,2013-05-16 19:58:00,
2013-05-16 16:03:00,78.4,55.9,28.66,South,180,3.5,3.5,46,0.00,CLR,SKC,0.19,WeatherDisplay:10.37,2013-05-16 20:03:00,
2013-05-16 16:08:00,79.2,56.0,28.66,South,180,0.0,0.0,45,0.00,CLR,SKC,0.19,WeatherDisplay:10.37,2013-05-16 20:08:00,
2013-05-16 16:13:00,79.7,57.1,28.66,South,180,1.2,0.0,46,0.00,CLR,SKC,0.19,WeatherDisplay:10.37,2013-05-16 20:13:00,
2013-05-16 16:18:00,79.7,56.5,28.67,SE,135,4.6,4.6,45,0.00,CLR,SKC,0.19,WeatherDisplay:10.37,2013-05-16 20:18:00,
2013-05-16 16:23:00,80.1,56.8,28.66,SSE,158,0.0,0.0,45,0.00,CLR,SKC,0.19,WeatherDisplay:10.37,2013-05-16 20:23:00,
2013-05-16 16:28:00,79.9,56.6,28.66,North,6,6.0,0.0,45,0.00,CLR,SKC,0.19,WeatherDisplay:10.37,2013-05-16 20:28:00,
2013-05-16 16:33:00,79.2,57.2,28.66,South,180,5.8,5.8,47,0.00,CLR,SKC,0.19,WeatherDisplay:10.37,2013-05-16 20:33:00,
2013-05-16 16:38:00,79.2,57.2,28.66,South,180,4.6,4.6,47,0.00,CLR,SKC,0.19,WeatherDisplay:10.37,2013-05-16 20:38:00,
2013-05-16 16:43:00,79.2,57.2,28.66,South,180,4.6,4.6,47,0.00,CLR,SKC,0.19,WeatherDisplay:10.37,2013-05-16 20:43:00,
2013-05-16 16:48:00,79.5,56.3,28.66,West,270,3.5,3.8,45,0.00,CLR,SKC,0.19,WeatherDisplay:10.37,2013-05-16 20:48:00,
2013-05-16 16:53:00,79.9,56.6,28.66,North,0,3.5,3.5,45,0.00,CLR,SKC,0.19,WeatherDisplay:10.37,2013-05-16 20:53:00,
2013-05-16 16:58:00,79.7,57.1,28.66,South,180,4.6,4.6,46,0.00,CLR,SKC,0.19,WeatherDisplay:10.37,2013-05-16 20:58:00,
2013-05-16 17:03:00,79.7,57.1,28.67,East,90,6.9,6.9,46,0.00,CLR,SKC,0.19,WeatherDisplay:10.37,2013-05-16 21:03:00,
2013-05-16 17:08:00,80.1,56.8,28.67,South,180,3.5,3.5,45,0.00,CLR,SKC,0.19,WeatherDisplay:10.37,2013-05-16 21:08:00,
2013-05-16 17:13:00,80.2,56.3,28.67,South,180,4.6,4.6,44,0.00,CLR,SKC,0.19,WeatherDisplay:10.37,2013-05-16 21:13:00,
2013-05-16 17:18:00,80.2,57.0,28.66,South,180,4.6,0.0,45,0.00,CLR,SKC,0.19,WeatherDisplay:10.37,2013-05-16 21:18:00,
2013-05-16 17:23:00,80.4,57.1,28.66,South,180,3.5,3.5,45,0.00,CLR,SKC,0.19,WeatherDisplay:10.37,2013-05-16 21:23:00,
2013-05-16 17:28:00,80.2,57.6,28.66,SSE,158,2.3,0.0,46,0.00,CLR,SKC,0.19,WeatherDisplay:10.37,2013-05-16 21:28:00,
2013-05-16 17:33:00,79.9,54.7,28.67,North,8,9.8,9.8,42,0.00,CLR,SKC,0.19,WeatherDisplay:10.37,2013-05-16 21:33:00,
2013-05-16 17:38:00,79.5,56.9,28.67,South,180,5.8,5.8,46,0.00,CLR,SKC,0.19,WeatherDisplay:10.37,2013-05-16 21:38:00,
2013-05-16 17:43:00,80.1,58.0,28.67,East,90,3.5,0.0,47,0.00,CLR,SKC,0.19,WeatherDisplay:10.37,2013-05-16 21:43:00,
2013-05-16 17:48:00,80.2,57.6,28.67,South,180,5.8,5.8,46,0.00,CLR,SKC,0.19,WeatherDisplay:10.37,2013-05-16 21:48:00,
2013-05-16 17:53:00,80.4,55.9,28.67,South,180,5.8,5.8,43,0.00,CLR,SKC,0.19,WeatherDisplay:10.37,2013-05-16 21:53:00,
2013-05-16 17:58:00,79.9,55.4,28.67,South,180,5.8,5.8,43,0.00,CLR,SKC,0.19,WeatherDisplay:10.37,2013-05-16 21:58:00,
2013-05-16 18:03:00,79.5,56.3,28.67,South,180,4.6,4.6,45,0.00,CLR,SKC,0.19,WeatherDisplay:10.37,2013-05-16 22:03:00,
2013-05-16 18:08:00,79.5,56.3,28.67,South,180,4.6,4.6,45,0.00,CLR,SKC,0.19,WeatherDisplay:10.37,2013-05-16 22:08:00,
2013-05-16 18:13:00,79.5,56.3,28.67,South,180,3.5,3.5,45,0.00,CLR,SKC,0.19,WeatherDisplay:10.37,2013-05-16 22:13:00,
2013-05-16 18:18:00,79.9,56.6,28.67,SE,135,1.2,0.0,45,0.00,CLR,SKC,0.19,WeatherDisplay:10.37,2013-05-16 22:18:00,
2013-05-16 18:23:00,80.4,57.7,28.67,SE,135,0.0,0.0,46,0.00,CLR,SKC,0.19,WeatherDisplay:10.37,2013-05-16 22:23:00,
2013-05-16 18:28:00,80.6,57.3,28.67,South,180,0.0,0.0,45,0.00,CLR,SKC,0.19,WeatherDisplay:10.37,2013-05-16 22:28:00,
2013-05-16 18:33:00,80.6,57.3,28.67,SE,135,0.0,0.0,45,0.00,CLR,SKC,0.19,WeatherDisplay:10.37,2013-05-16 22:33:00,
2013-05-16 18:38:00,80.4,56.5,28.67,West,270,0.0,0.0,44,0.00,CLR,SKC,0.19,WeatherDisplay:10.37,2013-05-16 22:38:00,
2013-05-16 18:43:00,80.1,56.2,28.67,SE,135,0.0,0.0,44,0.00,CLR,SKC,0.19,WeatherDisplay:10.37,2013-05-16 22:43:00,
2013-05-16 18:48:00,79.7,56.5,28.67,West,270,0.0,0.0,45,0.00,CLR,SKC,0.19,WeatherDisplay:10.37,2013-05-16 22:48:00,
2013-05-16 18:53:00,79.3,56.2,28.67,SE,135,5.8,5.8,45,0.00,CLR,SKC,0.19,WeatherDisplay:10.37,2013-05-16 22:53:00,
2013-05-16 18:58:00,79.0,57.0,28.67,East,90,1.2,1.2,47,0.00,CLR,SKC,0.19,WeatherDisplay:10.37,2013-05-16 22:58:00,
2013-05-16 19:03:00,78.6,56.7,28.67,South,180,3.5,3.5,47,0.00,CLR,SKC,0.19,WeatherDisplay:10.37,2013-05-16 23:03:00,
2013-05-16 19:08:00,78.6,57.3,28.67,South,180,0.0,0.0,48,0.00,CLR,SKC,0.19,WeatherDisplay:10.37,2013-05-16 23:08:00,
2013-05-16 19:13:00,79.0,57.0,28.67,South,180,2.3,2.3,47,0.00,CLR,SKC,0.19,WeatherDisplay:10.37,2013-05-16 23:13:00,
2013-05-16 19:18:00,79.3,56.8,28.68,South,180,8.1,0.0,46,0.00,CLR,SKC,0.19,WeatherDisplay:10.37,2013-05-16 23:18:00,
2013-05-16 19:23:00,79.3,56.8,28.68,South,180,0.0,0.0,46,0.00,CLR,SKC,0.19,WeatherDisplay:10.37,2013-05-16 23:23:00,
2013-05-16 19:28:00,79.0,56.4,28.68,South,180,0.0,0.0,46,0.00,CLR,SKC,0.19,WeatherDisplay:10.37,2013-05-16 23:28:00,
2013-05-16 19:33:00,78.6,56.7,28.68,South,180,0.0,0.0,47,0.00,CLR,SKC,0.19,WeatherDisplay:10.37,2013-05-16 23:33:00,
2013-05-16 19:38:00,78.1,57.4,28.68,South,180,0.0,0.0,49,0.00,CLR,SKC,0.19,WeatherDisplay:10.37,2013-05-16 23:38:00,
2013-05-16 19:43:00,77.2,56.5,28.68,SE,135,0.0,0.0,49,0.00,CLR,SKC,0.19,WeatherDisplay:10.37,2013-05-16 23:43:00,
2013-05-16 19:48:00,76.3,56.8,28.68,South,180,0.0,0.0,51,0.00,CLR,SKC,0.19,WeatherDisplay:10.37,2013-05-16 23:48:00,
2013-05-16 19:53:00,75.6,56.7,28.69,SE,135,0.0,0.0,52,0.00,CLR,SKC,0.19,WeatherDisplay:10.37,2013-05-16 23:53:00,
2013-05-16 19:58:00,75.0,56.2,28.69,SE,135,0.0,0.0,52,0.00,CLR,SKC,0.19,WeatherDisplay:10.37,2013-05-16 23:58:00,
2013-05-16 20:03:00,74.7,56.4,28.69,SE,135,0.0,0.0,53,0.00,CLR,SKC,0.19,WeatherDisplay:10.37,2013-05-17 00:03:00,
2013-05-16 20:08:00,74.5,56.2,28.69,South,180,0.0,0.0,53,0.00,CLR,SKC,0.19,WeatherDisplay:10.37,2013-05-17 00:08:00,
2013-05-16 20:13:00,74.3,56.1,28.70,SE,135,0.0,0.0,53,0.00,CLR,SKC,0.19,WeatherDisplay:10.37,2013-05-17 00:13:00,
2013-05-16 20:18:00,73.4,55.7,28.70,SE,135,0.0,0.0,54,0.00,CLR,SKC,0.19,WeatherDisplay:10.37,2013-05-17 00:18:00,
2013-05-16 20:23:00,72.7,55.6,28.70,South,180,0.0,0.0,55,0.00,CLR,SKC,0.19,WeatherDisplay:10.37,2013-05-17 00:23:00,
2013-05-16 20:28:00,72.1,55.6,28.70,East,90,0.0,0.0,56,0.00,CLR,SKC,0.19,WeatherDisplay:10.37,2013-05-17 00:28:00,
2013-05-16 20:33:00,71.8,55.7,28.70,SE,135,0.0,0.0,57,0.00,CLR,SKC,0.19,WeatherDisplay:10.37,2013-05-17 00:33:00,
2013-05-16 20:38:00,71.2,55.2,28.71,South,180,0.0,0.0,57,0.00,CLR,SKC,0.19,WeatherDisplay:10.37,2013-05-17 00:38:00,
2013-05-16 20:43:00,70.9,55.4,28.70,South,180,0.0,0.0,58,0.00,CLR,SKC,0.19,WeatherDisplay:10.37,2013-05-17 00:43:00,
2013-05-16 20:48:00,70.5,55.0,28.71,SE,135,0.0,0.0,58,0.00,CLR,SKC,0.19,WeatherDisplay:10.37,2013-05-17 00:48:00,
2013-05-16 20:53:00,70.3,55.3,28.71,South,180,0.0,0.0,59,0.00,CLR,SKC,0.19,WeatherDisplay:10.37,2013-05-17 00:53:00,
2013-05-16 20:58:00,70.0,55.0,28.71,East,90,0.0,0.0,59,0.00,CLR,SKC,0.19,WeatherDisplay:10.37,2013-05-17 00:58:00,
2013-05-16 21:03:00,69.8,55.3,28.71,East,90,0.0,0.0,60,0.00,CLR,SKC,0.19,WeatherDisplay:10.37,2013-05-17 01:03:00,
2013-05-16 21:08:00,69.4,54.9,28.71,East,90,0.0,0.0,60,0.00,CLR,SKC,0.19,WeatherDisplay:10.37,2013-05-17 01:08:00,
2013-05-16 21:13:00,68.9,54.4,28.72,South,180,0.0,0.0,60,0.00,CLR,SKC,0.19,WeatherDisplay:10.37,2013-05-17 01:13:00,
2013-05-16 21:18:00,68.7,54.7,28.72,East,90,0.0,0.0,61,0.00,CLR,SKC,0.19,WeatherDisplay:10.37,2013-05-17 01:18:00,
2013-05-16 21:23:00,68.5,54.6,28.72,SE,135,0.0,0.0,61,0.00,CLR,SKC,0.19,WeatherDisplay:10.37,2013-05-17 01:23:00,
2013-05-16 21:28:00,68.5,55.0,28.72,South,180,0.0,0.0,62,0.00,CLR,SKC,0.19,WeatherDisplay:10.37,2013-05-17 01:28:00,
2013-05-16 21:33:00,68.4,54.8,28.72,NE,45,0.0,0.0,62,0.00,CLR,SKC,0.19,WeatherDisplay:10.37,2013-05-17 01:33:00,
2013-05-16 21:38:00,68.4,56.1,28.72,South,180,0.0,0.0,65,0.00,CLR,SKC,0.19,WeatherDisplay:10.37,2013-05-17 01:38:00,
2013-05-16 21:43:00,68.4,57.0,28.72,South,180,0.0,0.0,67,0.00,CLR,SKC,0.19,WeatherDisplay:10.37,2013-05-17 01:43:00,
2013-05-16 21:48:00,68.2,57.2,28.73,South,180,0.0,0.0,68,0.00,CLR,SKC,0.19,WeatherDisplay:10.37,2013-05-17 01:48:00,
2013-05-16 21:53:00,68.0,57.4,28.73,East,90,0.0,0.0,69,0.00,CLR,SKC,0.19,WeatherDisplay:10.37,2013-05-17 01:53:00,
2013-05-16 21:58:00,67.6,57.5,28.73,South,180,0.0,0.0,70,0.00,CLR,SKC,0.19,WeatherDisplay:10.37,2013-05-17 01:58:00,
2013-05-16 22:03:00,67.5,57.3,28.74,SE,135,0.0,0.0,70,0.00,CLR,SKC,0.19,WeatherDisplay:10.37,2013-05-17 02:03:00,
2013-05-16 22:08:00,66.7,57.0,28.74,SE,135,0.0,0.0,71,0.00,CLR,SKC,0.19,WeatherDisplay:10.37,2013-05-17 02:08:00,
2013-05-16 22:13:00,66.2,57.3,28.75,SE,135,0.0,0.0,73,0.00,CLR,SKC,0.19,WeatherDisplay:10.37,2013-05-17 02:13:00,
2013-05-16 22:18:00,65.8,56.9,28.75,SE,135,0.0,0.0,73,0.00,CLR,SKC,0.19,WeatherDisplay:10.37,2013-05-17 02:18:00,
2013-05-16 22:23:00,65.3,57.5,28.75,SE,135,0.0,0.0,76,0.00,CLR,SKC,0.19,WeatherDisplay:10.37,2013-05-17 02:23:00,
2013-05-16 22:28:00,65.1,58.1,28.75,SE,135,0.0,0.0,78,0.00,CLR,SKC,0.19,WeatherDisplay:10.37,2013-05-17 02:28:00,
2013-05-16 22:33:00,64.9,58.6,28.75,East,90,0.0,0.0,80,0.00,CLR,SKC,0.19,WeatherDisplay:10.37,2013-05-17 02:33:00,
2013-05-16 22:38:00,64.8,59.1,28.75,East,90,0.0,0.0,82,0.00,CLR,SKC,0.19,WeatherDisplay:10.37,2013-05-17 02:38:00,
2013-05-16 22:43:00,64.8,59.8,28.75,East,90,0.0,0.0,84,0.00,CLR,SKC,0.19,WeatherDisplay:10.37,2013-05-17 02:43:00,
2013-05-16 22:48:00,64.8,60.1,28.75,East,90,0.0,0.0,85,0.00,CLR,SKC,0.19,WeatherDisplay:10.37,2013-05-17 02:48:00,
2013-05-16 22:53:00,64.6,60.0,28.75,East,90,0.0,0.0,85,0.00,CLR,SKC,0.19,WeatherDisplay:10.37,2013-05-17 02:53:00,
2013-05-16 22:58:00,64.2,59.9,28.75,East,90,0.0,0.0,86,0.00,CLR,SKC,0.19,WeatherDisplay:10.37,2013-05-17 02:58:00,
2013-05-16 23:03:00,64.2,60.3,28.75,SE,135,0.0,0.0,87,0.00,CLR,SKC,0.19,WeatherDisplay:10.37,2013-05-17 03:03:00,
2013-05-16 23:08:00,63.9,60.2,28.75,East,90,0.0,0.0,88,0.00,CLR,SKC,0.19,WeatherDisplay:10.37,2013-05-17 03:08:00,
2013-05-16 23:13:00,63.5,59.9,28.75,East,90,0.0,0.0,88,0.00,CLR,SKC,0.19,WeatherDisplay:10.37,2013-05-17 03:13:00,
2013-05-16 23:18:00,63.3,60.0,28.75,SE,135,0.0,0.0,89,0.00,CLR,SKC,0.19,WeatherDisplay:10.37,2013-05-17 03:18:00,
2013-05-16 23:23:00,63.3,61.0,28.75,East,90,0.0,0.0,92,0.00,CLR,SKC,0.19,WeatherDisplay:10.37,2013-05-17 03:23:00,
2013-05-16 23:28:00,63.1,60.8,28.75,East,90,0.0,0.0,92,0.00,CLR,SKC,0.19,WeatherDisplay:10.37,2013-05-17 03:28:00,
2013-05-16 23:33:00,63.0,60.9,28.75,East,90,0.0,0.0,93,0.00,CLR,SKC,0.19,WeatherDisplay:10.37,2013-05-17 03:33:00,
2013-05-16 23:38:00,62.8,61.0,28.75,East,90,0.0,0.0,94,0.00,CLR,SKC,0.19,WeatherDisplay:10.37,2013-05-17 03:38:00,
2013-05-16 23:43:00,62.6,61.1,28.75,East,90,0.0,0.0,95,0.00,CLR,SKC,0.19,WeatherDisplay:10.37,2013-05-17 03:43:00,
2013-05-16 23:48:00,62.2,60.8,28.76,NE,45,0.0,0.0,95,0.00,CLR,SKC,0.19,WeatherDisplay:10.37,2013-05-17 03:48:00,
2013-05-16 23:53:00,62.2,60.8,28.76,East,90,0.0,0.0,95,0.00,CLR,SKC,0.19,WeatherDisplay:10.37,2013-05-17 03:53:00,
2013-05-16 23:58:00,62.1,61.2,28.76,SE,135,0.0,0.0,97,0.00,CLR,SKC,0.19,WeatherDisplay:10.37,2013-05-17 03:58:00,